sensor_id;sensor_type;location;lat;lon;timestamp;pressure;altitude;pressure_sealevel;temperature;humidity
59240;BME280;45010;53.640;10.578;2023-02-12T00:02:49;102767.13;;;23.21;34.55
59240;BME280;45010;53.640;10.578;2023-02-12T00:05:49;102764.63;;;23.20;34.61
59240;BME280;45010;53.640;10.578;2023-02-12T00:08:51;102766.78;;;23.16;34.54
59240;BME280;45010;53.640;10.578;2023-02-12T00:11:52;102776.91;;;23.21;34.46
59240;BME280;45010;53.640;10.578;2023-02-12T00:14:52;102778.09;;;23.18;34.31
59240;BME280;45010;53.640;10.578;2023-02-12T00:17:52;102782.41;;;23.19;34.52
59240;BME280;45010;53.640;10.578;2023-02-12T00:20:53;102781.75;;;23.17;34.49
59240;BME280;45010;53.640;10.578;2023-02-12T00:23:53;102776.75;;;23.14;34.65
59240;BME280;45010;53.640;10.578;2023-02-12T00:26:54;102792.41;;;23.17;34.76
59240;BME280;45010;53.640;10.578;2023-02-12T00:29:54;102786.44;;;23.15;34.78
59240;BME280;45010;53.640;10.578;2023-02-12T00:32:55;102796.06;;;23.16;34.48
59240;BME280;45010;53.640;10.578;2023-02-12T00:35:56;102801.41;;;23.16;34.30
59240;BME280;45010;53.640;10.578;2023-02-12T00:38:56;102796.06;;;23.16;34.83
59240;BME280;45010;53.640;10.578;2023-02-12T00:41:56;102798.91;;;23.15;34.79
59240;BME280;45010;53.640;10.578;2023-02-12T00:44:57;102803.38;;;23.14;34.76
59240;BME280;45010;53.640;10.578;2023-02-12T00:47:57;102797.25;;;23.14;34.45
59240;BME280;45010;53.640;10.578;2023-02-12T00:50:58;102791.06;;;23.13;34.65
59240;BME280;45010;53.640;10.578;2023-02-12T00:53:58;102794.75;;;23.12;34.71
59240;BME280;45010;53.640;10.578;2023-02-12T00:56:59;102795.59;;;23.13;34.75
59240;BME280;45010;53.640;10.578;2023-02-12T00:59:59;102805.38;;;23.12;34.79
59240;BME280;45010;53.640;10.578;2023-02-12T01:02:59;102807.03;;;23.13;34.46
59240;BME280;45010;53.640;10.578;2023-02-12T01:06:00;102794.75;;;23.12;34.79
59240;BME280;45010;53.640;10.578;2023-02-12T01:09:00;102800.06;;;23.12;34.36
59240;BME280;45010;53.640;10.578;2023-02-12T01:12:01;102802.72;;;23.12;34.34
59240;BME280;45010;53.640;10.578;2023-02-12T01:15:02;102808.72;;;23.06;34.65
59240;BME280;45010;53.640;10.578;2023-02-12T01:18:02;102809.06;;;23.11;34.36
59240;BME280;45010;53.640;10.578;2023-02-12T01:21:11;102809.91;;;23.11;34.50
59240;BME280;45010;53.640;10.578;2023-02-12T01:24:11;102818.69;;;23.12;34.76
59240;BME280;45010;53.640;10.578;2023-02-12T01:27:11;102819.69;;;23.11;34.67
59240;BME280;45010;53.640;10.578;2023-02-12T01:30:13;102806.91;;;22.98;34.73
59240;BME280;45010;53.640;10.578;2023-02-12T01:33:14;102827.03;;;23.09;34.70
59240;BME280;45010;53.640;10.578;2023-02-12T01:36:14;102832.34;;;23.09;34.73
59240;BME280;45010;53.640;10.578;2023-02-12T01:39:15;102812.75;;;22.93;34.69
59240;BME280;45010;53.640;10.578;2023-02-12T01:42:15;102833.03;;;23.03;34.68
59240;BME280;45010;53.640;10.578;2023-02-12T01:45:41;102824.38;;;23.01;34.48
59240;BME280;45010;53.640;10.578;2023-02-12T01:48:46;102841.31;;;23.08;34.74
59240;BME280;45010;53.640;10.578;2023-02-12T01:51:51;102844.97;;;23.07;34.59
59240;BME280;45010;53.640;10.578;2023-02-12T01:54:54;102844.16;;;23.06;34.65
59240;BME280;45010;53.640;10.578;2023-02-12T01:57:58;102840.66;;;23.06;34.37
59240;BME280;45010;53.640;10.578;2023-02-12T02:00:59;102839.81;;;23.05;34.79
59240;BME280;45010;53.640;10.578;2023-02-12T02:04:07;102835.50;;;23.04;34.88
59240;BME280;45010;53.640;10.578;2023-02-12T02:07:09;102804.44;;;22.88;34.43
59240;BME280;45010;53.640;10.578;2023-02-12T02:10:11;102814.75;;;22.91;34.53
59240;BME280;45010;53.640;10.578;2023-02-12T02:13:11;102839.16;;;23.03;34.71
59240;BME280;45010;53.640;10.578;2023-02-12T02:16:33;102833.03;;;23.03;34.57
59240;BME280;45010;53.640;10.578;2023-02-12T02:19:53;102826.69;;;22.95;34.41
59240;BME280;45010;53.640;10.578;2023-02-12T02:27:13;102835.00;;;23.01;34.64
59240;BME280;45010;53.640;10.578;2023-02-12T02:30:33;102835.00;;;23.01;34.67
59240;BME280;45010;53.640;10.578;2023-02-12T02:33:52;102838.69;;;23.00;34.77
59240;BME280;45010;53.640;10.578;2023-02-12T02:40:13;102817.22;;;22.93;34.82
59240;BME280;45010;53.640;10.578;2023-02-12T02:43:22;102802.28;;;22.83;34.79
59240;BME280;45010;53.640;10.578;2023-02-12T02:46:33;102830.03;;;22.97;34.77
59240;BME280;45010;53.640;10.578;2023-02-12T02:49:41;102832.38;;;22.92;34.81
59240;BME280;45010;53.640;10.578;2023-02-12T02:52:51;102839.03;;;22.96;34.80
59240;BME280;45010;53.640;10.578;2023-02-12T02:55:54;102836.53;;;22.95;34.68
59240;BME280;45010;53.640;10.578;2023-02-12T02:59:01;102830.03;;;22.89;34.83
59240;BME280;45010;53.640;10.578;2023-02-12T03:02:14;102810.78;;;22.79;34.79
59240;BME280;45010;53.640;10.578;2023-02-12T03:05:28;102840.19;;;22.94;34.51
59240;BME280;45010;53.640;10.578;2023-02-12T03:08:35;102850.31;;;22.90;34.83
59240;BME280;45010;53.640;10.578;2023-02-12T03:11:36;102855.31;;;22.93;34.59
59240;BME280;45010;53.640;10.578;2023-02-12T03:14:39;102849.66;;;22.88;34.50
59240;BME280;45010;53.640;10.578;2023-02-12T03:17:48;102844.50;;;22.87;34.69
59240;BME280;45010;53.640;10.578;2023-02-12T03:20:53;102836.03;;;22.75;34.70
59240;BME280;45010;53.640;10.578;2023-02-12T03:24:19;102861.78;;;22.91;34.87
59240;BME280;45010;53.640;10.578;2023-02-12T03:30:43;102871.78;;;22.89;34.56
59240;BME280;45010;53.640;10.578;2023-02-12T03:37:20;102855.31;;;22.77;34.82
59240;BME280;45010;53.640;10.578;2023-02-12T03:40:33;102871.59;;;22.90;34.75
59240;BME280;45010;53.640;10.578;2023-02-12T03:47:08;102878.59;;;22.83;34.45
59240;BME280;45010;53.640;10.578;2023-02-12T03:50:28;102881.59;;;22.88;34.48
59240;BME280;45010;53.640;10.578;2023-02-12T03:53:32;102884.25;;;22.88;34.62
59240;BME280;45010;53.640;10.578;2023-02-12T03:56:45;102881.25;;;22.83;34.65
59240;BME280;45010;53.640;10.578;2023-02-12T03:59:51;102895.88;;;22.87;34.65
59240;BME280;45010;53.640;10.578;2023-02-12T04:02:52;102895.56;;;22.82;34.91
59240;BME280;45010;53.640;10.578;2023-02-12T04:05:53;102904.72;;;22.88;34.75
59240;BME280;45010;53.640;10.578;2023-02-12T04:08:56;102876.94;;;22.74;34.81
59240;BME280;45010;53.640;10.578;2023-02-12T04:12:08;102898.06;;;22.83;35.15
59240;BME280;45010;53.640;10.578;2023-02-12T04:15:26;102909.19;;;22.87;34.69
59240;BME280;45010;53.640;10.578;2023-02-12T04:18:42;102900.06;;;22.81;34.84
59240;BME280;45010;53.640;10.578;2023-02-12T04:25:19;102907.53;;;22.86;34.98
59240;BME280;45010;53.640;10.578;2023-02-12T04:31:48;102910.69;;;22.81;34.80
59240;BME280;45010;53.640;10.578;2023-02-12T04:40:59;102932.47;;;22.85;34.96
59240;BME280;45010;53.640;10.578;2023-02-12T04:44:15;102936.13;;;22.84;34.69
59240;BME280;45010;53.640;10.578;2023-02-12T04:47:16;102930.78;;;22.84;34.87
59240;BME280;45010;53.640;10.578;2023-02-12T04:50:17;102929.97;;;22.83;34.91
59240;BME280;45010;53.640;10.578;2023-02-12T04:53:18;102933.44;;;22.84;34.92
59240;BME280;45010;53.640;10.578;2023-02-12T04:56:18;102933.44;;;22.84;34.91
59240;BME280;45010;53.640;10.578;2023-02-12T04:59:19;102916.50;;;22.68;34.75
59240;BME280;45010;53.640;10.578;2023-02-12T05:02:19;102931.47;;;22.86;34.85
59240;BME280;45010;53.640;10.578;2023-02-12T05:05:20;102937.13;;;22.75;34.91
59240;BME280;45010;53.640;10.578;2023-02-12T05:08:20;102939.78;;;22.75;34.91
59240;BME280;45010;53.640;10.578;2023-02-12T05:11:21;102938.78;;;22.76;34.86
59240;BME280;45010;53.640;10.578;2023-02-12T05:14:24;102925.13;;;22.70;34.97
59240;BME280;45010;53.640;10.578;2023-02-12T05:17:25;102936.47;;;22.81;35.30
59240;BME280;45010;53.640;10.578;2023-02-12T05:20:25;102930.13;;;22.82;35.05
59240;BME280;45010;53.640;10.578;2023-02-12T05:23:27;102938.13;;;22.82;35.12
59240;BME280;45010;53.640;10.578;2023-02-12T05:26:27;102929.13;;;22.83;34.91
59240;BME280;45010;53.640;10.578;2023-02-12T05:29:28;102933.63;;;22.82;34.90
59240;BME280;45010;53.640;10.578;2023-02-12T05:32:28;102931.97;;;22.81;35.23
59240;BME280;45010;53.640;10.578;2023-02-12T05:35:28;102938.13;;;22.82;35.08
59240;BME280;45010;53.640;10.578;2023-02-12T05:38:29;102932.78;;;22.82;35.02
59240;BME280;45010;53.640;10.578;2023-02-12T05:41:29;102926.66;;;22.81;35.27
59240;BME280;45010;53.640;10.578;2023-02-12T05:44:33;102930.13;;;22.82;34.73
59240;BME280;45010;53.640;10.578;2023-02-12T05:47:34;102934.66;;;22.81;34.80
59240;BME280;45010;53.640;10.578;2023-02-12T05:50:35;102941.44;;;22.76;35.16
59240;BME280;45010;53.640;10.578;2023-02-12T05:53:36;102952.41;;;22.81;35.16
59240;BME280;45010;53.640;10.578;2023-02-12T05:56:43;102954.44;;;22.79;35.29
59240;BME280;45010;53.640;10.578;2023-02-12T05:59:44;102949.41;;;22.76;35.12
59240;BME280;45010;53.640;10.578;2023-02-12T06:02:44;102946.75;;;22.76;34.72
59240;BME280;45010;53.640;10.578;2023-02-12T06:05:49;102935.44;;;22.65;35.09
59240;BME280;45010;53.640;10.578;2023-02-12T06:08:50;102949.56;;;22.74;35.08
59240;BME280;45010;53.640;10.578;2023-02-12T06:11:51;102953.06;;;22.75;35.20
59240;BME280;45010;53.640;10.578;2023-02-12T06:14:51;102964.06;;;22.80;35.09
59240;BME280;45010;53.640;10.578;2023-02-12T06:17:51;102965.06;;;22.79;35.12
59240;BME280;45010;53.640;10.578;2023-02-12T06:20:52;102958.06;;;22.78;34.93
59240;BME280;45010;53.640;10.578;2023-02-12T06:23:53;102965.06;;;22.79;34.83
59240;BME280;45010;53.640;10.578;2023-02-12T06:26:54;102955.09;;;22.73;35.25
59240;BME280;45010;53.640;10.578;2023-02-12T06:29:54;102963.38;;;22.78;35.30
59240;BME280;45010;53.640;10.578;2023-02-12T06:32:54;102963.38;;;22.78;35.00
59240;BME280;45010;53.640;10.578;2023-02-12T06:35:55;102968.69;;;22.78;35.23
59240;BME280;45010;53.640;10.578;2023-02-12T06:38:55;102972.19;;;22.78;34.94
59240;BME280;45010;53.640;10.578;2023-02-12T06:41:56;102969.69;;;22.77;35.19
59240;BME280;45010;53.640;10.578;2023-02-12T06:44:56;102967.03;;;22.77;34.84
59240;BME280;45010;53.640;10.578;2023-02-12T06:47:56;102970.53;;;22.77;35.11
59240;BME280;45010;53.640;10.578;2023-02-12T06:51:14;102964.03;;;22.71;34.90
59240;BME280;45010;53.640;10.578;2023-02-12T06:54:16;102974.66;;;22.71;35.02
59240;BME280;45010;53.640;10.578;2023-02-12T06:57:17;102985.66;;;22.77;35.35
59240;BME280;45010;53.640;10.578;2023-02-12T07:00:17;102994.47;;;22.77;34.93
59240;BME280;45010;53.640;10.578;2023-02-12T07:03:18;102996.31;;;22.77;35.07
59240;BME280;45010;53.640;10.578;2023-02-12T07:06:19;102998.59;;;22.71;35.38
59240;BME280;45010;53.640;10.578;2023-02-12T07:09:19;103000.63;;;22.78;35.00
59240;BME280;45010;53.640;10.578;2023-02-12T07:12:20;103010.44;;;22.77;34.94
59240;BME280;45010;53.640;10.578;2023-02-12T07:15:20;102999.81;;;22.77;34.98
59240;BME280;45010;53.640;10.578;2023-02-12T07:18:20;103016.59;;;22.78;35.20
59240;BME280;45010;53.640;10.578;2023-02-12T07:21:21;103009.59;;;22.77;35.23
59240;BME280;45010;53.640;10.578;2023-02-12T07:24:21;103007.94;;;22.76;35.40
59240;BME280;45010;53.640;10.578;2023-02-12T07:27:21;103018.59;;;22.76;35.04
59240;BME280;45010;53.640;10.578;2023-02-12T07:30:22;103011.25;;;22.78;35.24
59240;BME280;45010;53.640;10.578;2023-02-12T07:33:22;103013.09;;;22.77;35.10
59240;BME280;45010;53.640;10.578;2023-02-12T07:36:24;103013.59;;;22.73;34.99
59240;BME280;45010;53.640;10.578;2023-02-12T07:39:24;103021.91;;;22.78;35.41
59240;BME280;45010;53.640;10.578;2023-02-12T07:42:24;103027.22;;;22.78;34.76
59240;BME280;45010;53.640;10.578;2023-02-12T07:45:25;103004.41;;;22.67;35.12
59240;BME280;45010;53.640;10.578;2023-02-12T07:48:25;103023.59;;;22.79;35.50
59240;BME280;45010;53.640;10.578;2023-02-12T07:51:26;103018.91;;;22.73;35.28
59240;BME280;45010;53.640;10.578;2023-02-12T07:54:27;103027.22;;;22.78;35.33
59240;BME280;45010;53.640;10.578;2023-02-12T07:57:27;103023.59;;;22.79;35.30
59240;BME280;45010;53.640;10.578;2023-02-12T08:00:27;103025.56;;;22.77;35.22
59240;BME280;45010;53.640;10.578;2023-02-12T08:03:27;103033.53;;;22.77;34.90
59240;BME280;45010;53.640;10.578;2023-02-12T08:06:30;103001.25;;;22.63;35.08
59240;BME280;45010;53.640;10.578;2023-02-12T08:09:31;103032.53;;;22.78;35.43
59240;BME280;45010;53.640;10.578;2023-02-12T08:12:32;103043.19;;;22.78;35.30
59240;BME280;45010;53.640;10.578;2023-02-12T08:15:32;103043.19;;;22.78;35.41
59240;BME280;45010;53.640;10.578;2023-02-12T08:18:33;103044.88;;;22.79;35.34
59240;BME280;45010;53.640;10.578;2023-02-12T08:21:33;103039.19;;;22.74;35.12
59240;BME280;45010;53.640;10.578;2023-02-12T08:24:34;103050.19;;;22.79;35.33
59240;BME280;45010;53.640;10.578;2023-02-12T08:27:34;103052.00;;;22.78;34.93
59240;BME280;45010;53.640;10.578;2023-02-12T08:30:34;103059.16;;;22.78;34.93
59240;BME280;45010;53.640;10.578;2023-02-12T08:33:35;103054.66;;;22.78;35.36
59240;BME280;45010;53.640;10.578;2023-02-12T08:36:38;103055.31;;;22.72;35.26
59240;BME280;45010;53.640;10.578;2023-02-12T08:39:39;103067.97;;;22.78;35.09
59240;BME280;45010;53.640;10.578;2023-02-12T08:42:39;103075.09;;;22.78;35.29
59240;BME280;45010;53.640;10.578;2023-02-12T08:45:39;103069.78;;;22.78;35.25
59240;BME280;45010;53.640;10.578;2023-02-12T08:48:41;103066.63;;;22.74;35.05
59240;BME280;45010;53.640;10.578;2023-02-12T08:51:44;103086.44;;;22.80;35.02
59240;BME280;45010;53.640;10.578;2023-02-12T08:54:44;103083.78;;;22.80;35.27
59240;BME280;45010;53.640;10.578;2023-02-12T08:57:45;103080.44;;;22.78;34.87
59240;BME280;45010;53.640;10.578;2023-02-12T09:00:45;103074.13;;;22.79;35.18
59240;BME280;45010;53.640;10.578;2023-02-12T09:03:46;103070.13;;;22.75;35.30
59240;BME280;45010;53.640;10.578;2023-02-12T09:06:48;103082.94;;;22.79;35.37
59240;BME280;45010;53.640;10.578;2023-02-12T09:09:48;103080.13;;;22.81;35.14
59240;BME280;45010;53.640;10.578;2023-02-12T09:12:49;103080.13;;;22.81;35.06
59240;BME280;45010;53.640;10.578;2023-02-12T09:15:49;103078.47;;;22.80;35.24
59240;BME280;45010;53.640;10.578;2023-02-12T09:18:49;103078.75;;;22.77;35.17
59240;BME280;45010;53.640;10.578;2023-02-12T09:21:51;103091.59;;;22.81;34.90
59240;BME280;45010;53.640;10.578;2023-02-12T09:24:52;103075.44;;;22.75;35.24
59240;BME280;45010;53.640;10.578;2023-02-12T09:27:54;103080.13;;;22.81;35.10
59240;BME280;45010;53.640;10.578;2023-02-12T09:30:54;103087.09;;;22.82;35.12
59240;BME280;45010;53.640;10.578;2023-02-12T09:33:58;103077.09;;;22.76;35.26
59240;BME280;45010;53.640;10.578;2023-02-12T09:36:59;103092.41;;;22.82;35.00
59240;BME280;45010;53.640;10.578;2023-02-12T09:39:59;103085.09;;;22.76;35.15
59240;BME280;45010;53.640;10.578;2023-02-12T09:43:29;103097.75;;;22.82;35.09
59240;BME280;45010;53.640;10.578;2023-02-12T09:46:29;103095.09;;;22.82;34.99
59240;BME280;45010;53.640;10.578;2023-02-12T09:49:49;103090.75;;;22.81;35.37
59240;BME280;45010;53.640;10.578;2023-02-12T09:52:55;103100.41;;;22.82;35.07
59240;BME280;45010;53.640;10.578;2023-02-12T09:55:58;103103.06;;;22.82;35.25
59240;BME280;45010;53.640;10.578;2023-02-12T09:59:00;103090.41;;;22.76;35.32
59240;BME280;45010;53.640;10.578;2023-02-12T10:02:03;103108.38;;;22.82;35.23
59240;BME280;45010;53.640;10.578;2023-02-12T10:05:18;103091.25;;;22.76;35.40
59240;BME280;45010;53.640;10.578;2023-02-12T10:08:25;103103.06;;;22.82;35.14
59240;BME280;45010;53.640;10.578;2023-02-12T10:11:48;103101.41;;;22.81;34.96
59240;BME280;45010;53.640;10.578;2023-02-12T10:15:08;103106.72;;;22.81;35.12
59240;BME280;45010;53.640;10.578;2023-02-12T10:18:23;103106.72;;;22.81;35.04
59240;BME280;45010;53.640;10.578;2023-02-12T10:28:08;103109.03;;;22.76;35.50
59240;BME280;45010;53.640;10.578;2023-02-12T10:31:32;103108.38;;;22.74;35.63
59240;BME280;45010;53.640;10.578;2023-02-12T10:34:35;103106.69;;;22.73;35.69
59240;BME280;45010;53.640;10.578;2023-02-12T10:37:39;103118.38;;;22.80;36.47
59240;BME280;45010;53.640;10.578;2023-02-12T10:40:43;103102.72;;;22.77;36.04
59240;BME280;45010;53.640;10.578;2023-02-12T10:43:44;103120.69;;;22.83;36.29
59240;BME280;45010;53.640;10.578;2023-02-12T10:46:44;103111.72;;;22.84;36.40
59240;BME280;45010;53.640;10.578;2023-02-12T10:50:14;103104.41;;;22.86;36.18
59240;BME280;45010;53.640;10.578;2023-02-12T10:53:15;103101.06;;;22.84;36.23
59240;BME280;45010;53.640;10.578;2023-02-12T10:56:21;103107.44;;;22.91;36.48
59240;BME280;45010;53.640;10.578;2023-02-12T10:59:24;103105.44;;;22.93;36.38
59240;BME280;45010;53.640;10.578;2023-02-12T11:02:31;103107.78;;;22.96;36.15
59240;BME280;45010;53.640;10.578;2023-02-12T11:05:34;103108.97;;;23.02;36.47
59240;BME280;45010;53.640;10.578;2023-02-12T11:08:36;103103.94;;;22.99;36.55
59240;BME280;45010;53.640;10.578;2023-02-12T11:11:38;103105.81;;;23.07;36.44
59240;BME280;45010;53.640;10.578;2023-02-12T11:14:38;103095.66;;;23.02;36.09
59240;BME280;45010;53.640;10.578;2023-02-12T11:17:41;103084.16;;;23.02;35.97
59240;BME280;45010;53.640;10.578;2023-02-12T11:20:49;103102.03;;;23.18;35.89
59240;BME280;45010;53.640;10.578;2023-02-12T11:23:50;103106.16;;;23.20;35.89
59240;BME280;45010;53.640;10.578;2023-02-12T11:26:51;103100.53;;;23.23;36.22
59240;BME280;45010;53.640;10.578;2023-02-12T11:30:17;103100.22;;;23.27;35.82
59240;BME280;45010;53.640;10.578;2023-02-12T11:33:22;103095.56;;;23.29;35.87
59240;BME280;45010;53.640;10.578;2023-02-12T11:36:24;103084.25;;;23.27;35.77
59240;BME280;45010;53.640;10.578;2023-02-12T11:39:35;103090.59;;;23.34;36.02
59240;BME280;45010;53.640;10.578;2023-02-12T11:42:37;103094.75;;;23.36;35.99
59240;BME280;45010;53.640;10.578;2023-02-12T11:45:44;103091.91;;;23.38;35.76
59240;BME280;45010;53.640;10.578;2023-02-12T11:48:47;103083.63;;;23.41;35.83
59240;BME280;45010;53.640;10.578;2023-02-12T11:51:48;103085.94;;;23.44;35.73
59240;BME280;45010;53.640;10.578;2023-02-12T11:54:51;103077.28;;;23.42;36.00
59240;BME280;45010;53.640;10.578;2023-02-12T11:58:04;103083.59;;;23.49;35.64
59240;BME280;45010;53.640;10.578;2023-02-12T12:01:21;103085.09;;;23.52;35.75
59240;BME280;45010;53.640;10.578;2023-02-12T12:04:26;103067.97;;;23.46;35.73
59240;BME280;45010;53.640;10.578;2023-02-12T12:07:33;103078.31;;;23.58;35.78
59240;BME280;45010;53.640;10.578;2023-02-12T12:10:44;103076.13;;;23.61;35.87
59240;BME280;45010;53.640;10.578;2023-02-12T12:14:14;103076.78;;;23.63;35.44
59240;BME280;45010;53.640;10.578;2023-02-12T12:17:16;103067.63;;;23.66;35.43
59240;BME280;45010;53.640;10.578;2023-02-12T12:20:40;103072.66;;;23.69;35.48
59240;BME280;45010;53.640;10.578;2023-02-12T12:23:48;103052.16;;;23.61;35.41
59240;BME280;45010;53.640;10.578;2023-02-12T12:27:02;103046.81;;;23.70;35.34
59240;BME280;45010;53.640;10.578;2023-02-12T12:30:06;103057.31;;;23.71;35.08
59240;BME280;45010;53.640;10.578;2023-02-12T12:37:02;103057.97;;;23.82;35.44
59240;BME280;45010;53.640;10.578;2023-02-12T12:40:50;103047.97;;;23.84;35.31
59240;BME280;45010;53.640;10.578;2023-02-12T12:54:21;103050.44;;;23.94;35.18
59240;BME280;45010;53.640;10.578;2023-02-12T13:01:46;103041.28;;;23.96;35.10
59240;BME280;45010;53.640;10.578;2023-02-12T13:08:16;103028.97;;;23.95;35.14
59240;BME280;45010;53.640;10.578;2023-02-12T13:11:45;103029.94;;;24.02;35.07
59240;BME280;45010;53.640;10.578;2023-02-12T13:27:49;103016.63;;;24.02;34.63
59240;BME280;45010;53.640;10.578;2023-02-12T13:30:51;103017.25;;;24.04;34.57
59240;BME280;45010;53.640;10.578;2023-02-12T13:33:59;103018.97;;;24.05;34.42
59240;BME280;45010;53.640;10.578;2023-02-12T13:37:01;103017.25;;;24.04;34.52
59240;BME280;45010;53.640;10.578;2023-02-12T13:40:05;103021.94;;;24.11;34.48
59240;BME280;45010;53.640;10.578;2023-02-12T13:46:30;103022.78;;;24.11;34.66
59240;BME280;45010;53.640;10.578;2023-02-12T13:49:49;103023.78;;;24.10;34.43
59240;BME280;45010;53.640;10.578;2023-02-12T13:53:03;103009.28;;;24.04;34.24
59240;BME280;45010;53.640;10.578;2023-02-12T14:05:32;103013.28;;;24.09;34.40
59240;BME280;45010;53.640;10.578;2023-02-12T14:08:38;103000.63;;;24.02;34.45
59240;BME280;45010;53.640;10.578;2023-02-12T14:11:49;103006.31;;;24.08;34.42
59240;BME280;45010;53.640;10.578;2023-02-12T14:15:07;103008.28;;;24.05;34.36
59240;BME280;45010;53.640;10.578;2023-02-12T14:18:30;103005.31;;;24.00;34.10
59240;BME280;45010;53.640;10.578;2023-02-12T14:21:34;103011.94;;;24.04;34.56
59240;BME280;45010;53.640;10.578;2023-02-12T14:27:47;103010.28;;;24.03;34.38
59240;BME280;45010;53.640;10.578;2023-02-12T14:37:32;103003.97;;;23.96;34.70
59240;BME280;45010;53.640;10.578;2023-02-12T14:43:35;103001.78;;;24.00;34.87
59240;BME280;45010;53.640;10.578;2023-02-12T14:46:58;103005.31;;;24.00;35.19
59240;BME280;45010;53.640;10.578;2023-02-12T14:50:02;103006.13;;;24.01;35.29
59240;BME280;45010;53.640;10.578;2023-02-12T14:53:33;103000.31;;;23.97;35.32
59240;BME280;45010;53.640;10.578;2023-02-12T14:56:42;103001.63;;;24.01;35.27
59240;BME280;45010;53.640;10.578;2023-02-12T14:59:46;103004.94;;;24.03;35.14
59240;BME280;45010;53.640;10.578;2023-02-12T15:06:19;102993.97;;;23.98;34.87
59240;BME280;45010;53.640;10.578;2023-02-12T15:09:27;103008.28;;;24.05;35.12
59240;BME280;45010;53.640;10.578;2023-02-12T15:12:33;103003.78;;;24.06;34.91
59240;BME280;45010;53.640;10.578;2023-02-12T15:15:39;102998.81;;;24.03;34.96
59240;BME280;45010;53.640;10.578;2023-02-12T15:19:00;103004.28;;;24.10;35.22
59240;BME280;45010;53.640;10.578;2023-02-12T15:22:19;102985.97;;;23.98;35.10
59240;BME280;45010;53.640;10.578;2023-02-12T15:28:32;103012.59;;;24.15;35.02
59240;BME280;45010;53.640;10.578;2023-02-12T15:31:35;103012.59;;;24.15;34.89
59240;BME280;45010;53.640;10.578;2023-02-12T15:34:36;103004.28;;;24.10;35.16
59240;BME280;45010;53.640;10.578;2023-02-12T15:37:39;103008.13;;;24.15;35.25
59240;BME280;45010;53.640;10.578;2023-02-12T15:40:52;103009.28;;;24.13;35.22
59240;BME280;45010;53.640;10.578;2023-02-12T15:43:53;103016.59;;;24.19;35.27
59240;BME280;45010;53.640;10.578;2023-02-12T15:46:57;103005.63;;;24.14;35.23
59240;BME280;45010;53.640;10.578;2023-02-12T15:49:58;103008.94;;;24.16;35.36
59240;BME280;45010;53.640;10.578;2023-02-12T15:53:00;103015.94;;;24.17;35.20
59240;BME280;45010;53.640;10.578;2023-02-12T15:56:02;103013.78;;;24.12;35.22
59240;BME280;45010;53.640;10.578;2023-02-12T15:59:03;103015.22;;;24.23;35.19
59240;BME280;45010;53.640;10.578;2023-02-12T16:02:17;103018.59;;;24.25;35.43
59240;BME280;45010;53.640;10.578;2023-02-12T16:05:17;103025.56;;;24.26;35.21
59240;BME280;45010;53.640;10.578;2023-02-12T16:08:20;103013.56;;;24.22;35.27
59240;BME280;45010;53.640;10.578;2023-02-12T16:11:22;103012.94;;;24.20;35.21
59240;BME280;45010;53.640;10.578;2023-02-12T16:14:42;103033.25;;;24.29;35.27
59240;BME280;45010;53.640;10.578;2023-02-12T16:17:46;103026.56;;;24.25;35.16
59240;BME280;45010;53.640;10.578;2023-02-12T16:20:46;103023.22;;;24.23;35.03
59240;BME280;45010;53.640;10.578;2023-02-12T16:23:49;103036.56;;;24.31;35.06
59240;BME280;45010;53.640;10.578;2023-02-12T16:26:51;103038.38;;;24.31;35.12
59240;BME280;45010;53.640;10.578;2023-02-12T16:29:57;103031.59;;;24.20;35.23
59240;BME280;45010;53.640;10.578;2023-02-12T16:33:01;103039.56;;;24.28;35.18
59240;BME280;45010;53.640;10.578;2023-02-12T16:36:04;103040.56;;;24.27;35.16
59240;BME280;45010;53.640;10.578;2023-02-12T16:39:05;103047.88;;;24.34;35.45
59240;BME280;45010;53.640;10.578;2023-02-12T16:42:13;103050.38;;;24.35;35.59
59240;BME280;45010;53.640;10.578;2023-02-12T16:48:24;103054.69;;;24.36;36.25
59240;BME280;45010;53.640;10.578;2023-02-12T16:51:34;103061.53;;;24.39;36.32
59240;BME280;45010;53.640;10.578;2023-02-12T16:54:34;103039.91;;;24.25;36.57
59240;BME280;45010;53.640;10.578;2023-02-12T16:57:35;103065.69;;;24.41;36.47
59240;BME280;45010;53.640;10.578;2023-02-12T17:00:35;103064.84;;;24.41;36.56
59240;BME280;45010;53.640;10.578;2023-02-12T17:03:36;103071.88;;;24.42;36.58
59240;BME280;45010;53.640;10.578;2023-02-12T17:06:37;103069.19;;;24.42;36.42
59240;BME280;45010;53.640;10.578;2023-02-12T17:09:38;103066.53;;;24.42;36.27
59240;BME280;45010;53.640;10.578;2023-02-12T17:12:49;103068.19;;;24.43;36.81
59240;BME280;45010;53.640;10.578;2023-02-12T17:15:55;103065.69;;;24.41;36.68
59240;BME280;45010;53.640;10.578;2023-02-12T17:18:56;103065.19;;;24.38;36.92
59240;BME280;45010;53.640;10.578;2023-02-12T17:21:57;103058.91;;;24.30;36.67
59240;BME280;45010;53.640;10.578;2023-02-12T17:24:58;103068.53;;;24.40;36.68
59240;BME280;45010;53.640;10.578;2023-02-12T17:27:58;103079.19;;;24.40;36.68
59240;BME280;45010;53.640;10.578;2023-02-12T17:30:59;103091.50;;;24.41;36.70
59240;BME280;45010;53.640;10.578;2023-02-12T17:34:03;103079.19;;;24.40;36.54
59240;BME280;45010;53.640;10.578;2023-02-12T17:37:04;103070.06;;;24.34;36.50
59240;BME280;45010;53.640;10.578;2023-02-12T17:40:06;103091.03;;;24.37;36.54
59240;BME280;45010;53.640;10.578;2023-02-12T17:43:06;103064.91;;;24.24;36.51